Time;durP1;ratioP1;P1;durP2;ratioP2;P2;SDS_P1;SDS_P2;PMS_P1;PMS_P2;Temp;Humidity;BMP_temperature;BMP_pressure;BME280_temperature;BME280_humidity;BME280_pressure;Samples;Min_cycle;Max_cycle;Signal;HPM_P1;HPM_P2
2022/01/22 00:01:57;;;;;;;7.00;4.60;;;5.10;99.90;;;;;;5000486;28;20209;-76
2022/01/22 00:04:23;;;;;;;8.70;4.47;;;5.20;99.90;;;;;;5033043;28;20170;-76
2022/01/22 00:06:51;;;;;;;5.83;3.63;;;5.10;99.90;;;;;;5033134;28;20172;-79
2022/01/22 00:09:17;;;;;;;6.30;3.87;;;5.10;99.90;;;;;;5035224;28;20966;-76
2022/01/22 00:11:52;;;;;;;9.60;4.30;;;5.10;99.90;;;;;;5033497;28;20249;-77
2022/01/22 00:14:24;;;;;;;7.57;4.43;;;5.20;99.90;;;;;;5018400;28;20444;-77
2022/01/22 00:17:01;;;;;;;8.03;3.93;;;5.30;99.90;;;;;;5034205;28;20194;-76
2022/01/22 00:19:28;;;;;;;7.60;4.33;;;5.30;99.90;;;;;;5032634;28;20252;-76
2022/01/22 00:21:54;;;;;;;8.03;4.17;;;5.20;99.90;;;;;;5015852;28;20202;-78
2022/01/22 00:24:20;;;;;;;6.07;3.70;;;4.90;99.90;;;;;;5021965;28;20176;-79
2022/01/22 00:26:47;;;;;;;5.77;3.77;;;5.00;99.90;;;;;;5052645;28;20212;-77
2022/01/22 00:29:13;;;;;;;6.83;3.80;;;4.90;99.90;;;;;;5053879;28;20181;-76
2022/01/22 00:31:41;;;;;;;6.30;3.80;;;5.00;99.90;;;;;;5035147;28;20179;-80
2022/01/22 00:34:07;;;;;;;6.63;3.47;;;5.10;99.90;;;;;;5046098;28;20176;-78
2022/01/22 00:36:34;;;;;;;7.90;4.33;;;5.20;99.90;;;;;;5073403;28;20176;-76
2022/01/22 00:39:00;;;;;;;9.80;4.47;;;5.20;99.90;;;;;;5072103;28;20292;-79
2022/01/22 00:41:26;;;;;;;6.03;3.50;;;5.40;99.90;;;;;;5055118;28;20181;-79
2022/01/22 00:43:53;;;;;;;4.77;3.60;;;5.50;99.90;;;;;;5074015;28;20758;-77
2022/01/22 00:46:20;;;;;;;7.03;3.13;;;5.50;99.90;;;;;;5072483;28;20259;-79
2022/01/22 00:48:46;;;;;;;6.30;3.20;;;5.60;99.90;;;;;;5055790;28;20176;-80
2022/01/22 00:51:14;;;;;;;3.63;3.20;;;5.50;99.90;;;;;;5043801;28;20177;-78
2022/01/22 00:53:40;;;;;;;9.03;3.57;;;5.50;99.90;;;;;;5035491;28;20181;-78
2022/01/22 00:56:07;;;;;;;3.20;2.53;;;5.40;99.90;;;;;;5040245;28;20208;-77
2022/01/22 00:58:33;;;;;;;6.30;3.17;;;5.30;99.90;;;;;;5032168;28;20186;-78
2022/01/22 01:00:58;;;;;;;6.70;2.80;;;5.50;99.90;;;;;;4999170;28;20545;-78
2022/01/22 01:03:25;;;;;;;7.30;3.23;;;5.60;99.90;;;;;;5015454;28;20233;-79
2022/01/22 01:05:50;;;;;;;4.07;2.60;;;5.30;99.90;;;;;;5032980;28;20174;-76
2022/01/22 01:08:16;;;;;;;5.57;3.00;;;5.40;99.90;;;;;;5015210;28;20572;-76
2022/01/22 01:10:42;;;;;;;6.80;3.00;;;5.60;99.90;;;;;;5032142;28;20254;-78
2022/01/22 01:13:08;;;;;;;5.30;3.43;;;5.70;99.90;;;;;;5031516;28;20192;-77
2022/01/22 01:15:57;;;;;;;3.47;2.73;;;5.60;99.90;;;;;;5031598;28;20202;-77
2022/01/22 01:32:18;;;;;;;4.20;3.10;;;5.40;99.90;;;;;;5032459;28;20170;-78
2022/01/22 01:34:46;;;;;;;6.13;3.47;;;5.40;99.90;;;;;;5031223;28;20209;-78
2022/01/22 01:37:16;;;;;;;5.67;3.40;;;5.50;99.90;;;;;;4998900;28;20232;-77
2022/01/22 01:39:45;;;;;;;4.27;2.93;;;5.60;99.90;;;;;;5015623;28;20261;-77
2022/01/22 01:42:17;;;;;;;5.17;3.20;;;5.60;99.90;;;;;;5015467;28;20545;-78
2022/01/22 01:44:43;;;;;;;4.33;2.97;;;5.50;99.90;;;;;;5030962;28;20170;-76
2022/01/22 01:47:12;;;;;;;4.83;2.87;;;5.50;99.90;;;;;;5014768;28;20657;-79
2022/01/22 01:49:38;;;;;;;4.50;3.47;;;5.50;99.90;;;;;;5030992;28;20178;-76
2022/01/22 01:52:08;;;;;;;3.90;3.07;;;5.70;99.90;;;;;;5014605;28;20181;-76
2022/01/22 01:59:50;;;;;;;6.17;4.07;;;5.80;99.90;;;;;;5017574;28;20220;-76
2022/01/22 02:02:16;;;;;;;4.30;3.23;;;5.90;99.90;;;;;;5032112;28;20193;-77
2022/01/22 02:04:42;;;;;;;5.83;3.60;;;5.80;99.90;;;;;;5032421;28;20262;-77
2022/01/22 02:07:09;;;;;;;7.50;3.83;;;5.50;99.90;;;;;;5031262;28;20177;-77
2022/01/22 02:09:36;;;;;;;5.73;3.60;;;5.40;99.90;;;;;;5030603;28;20177;-78
2022/01/22 02:13:36;;;;;;;6.53;3.23;;;5.40;99.90;;;;;;5030384;28;20246;-77
2022/01/22 02:25:47;;;;;;;5.73;3.83;;;5.80;99.90;;;;;;5031683;28;20249;-77
2022/01/22 02:28:13;;;;;;;12.03;3.67;;;5.70;99.90;;;;;;5021715;28;20169;-77
2022/01/22 02:30:43;;;;;;;7.60;3.93;;;5.70;99.90;;;;;;5034083;28;20700;-77
2022/01/22 02:36:12;;;;;;;6.53;4.13;;;5.70;99.90;;;;;;5069654;28;20177;-78
2022/01/22 02:39:35;;;;;;;6.67;4.27;;;5.80;99.90;;;;;;5055907;28;20229;-77
2022/01/22 02:41:31;;;;;;;6.43;3.40;;;5.80;99.90;;;;;;5069166;28;20807;-79
2022/01/22 02:43:57;;;;;;;4.93;3.50;;;5.80;99.90;;;;;;5032743;28;20209;-76
2022/01/22 02:46:26;;;;;;;5.53;3.73;;;5.70;99.90;;;;;;5029948;28;20219;-75
2022/01/22 02:48:54;;;;;;;9.10;4.53;;;5.90;99.90;;;;;;5013654;28;20528;-77
2022/01/22 02:51:25;;;;;;;9.93;4.33;;;5.90;99.90;;;;;;5013534;28;20185;-79
2022/01/22 02:53:54;;;;;;;5.27;3.77;;;5.70;99.90;;;;;;5013274;28;20537;-77
2022/01/22 02:56:22;;;;;;;6.30;4.63;;;5.70;99.90;;;;;;5031062;28;20229;-76
2022/01/22 02:58:49;;;;;;;9.07;5.00;;;5.90;99.90;;;;;;5013933;28;20284;-76
2022/01/22 03:01:16;;;;;;;7.93;4.57;;;6.00;99.90;;;;;;5045164;28;20546;-77
2022/01/22 03:03:43;;;;;;;6.40;4.50;;;6.00;99.90;;;;;;5049251;28;20254;-76
2022/01/22 03:06:10;;;;;;;6.37;4.40;;;5.90;99.90;;;;;;5049825;28;20248;-76
2022/01/22 03:08:38;;;;;;;8.07;4.60;;;5.90;99.90;;;;;;5032411;28;20177;-78
2022/01/22 03:11:07;;;;;;;7.53;3.80;;;6.00;99.90;;;;;;5045612;28;20181;-77
2022/01/22 03:19:11;;;;;;;6.83;4.50;;;5.90;99.90;;;;;;5038282;28;20189;-77
2022/01/22 03:21:42;;;;;;;5.47;4.17;;;5.90;99.90;;;;;;5034459;28;20506;-78
2022/01/22 03:29:47;;;;;;;6.33;4.43;;;5.90;99.90;;;;;;5054201;28;20590;-76
2022/01/22 03:32:13;;;;;;;8.80;4.67;;;6.00;99.90;;;;;;5016151;28;20185;-77
2022/01/22 03:34:54;;;;;;;5.87;3.57;;;5.80;99.90;;;;;;5044976;28;20174;-78
2022/01/22 03:37:19;;;;;;;7.03;4.47;;;5.60;99.90;;;;;;5029367;28;20248;-76
2022/01/22 03:39:46;;;;;;;5.33;3.73;;;5.70;99.90;;;;;;5013340;28;20272;-75
2022/01/22 03:42:11;;;;;;;6.67;3.90;;;5.70;99.90;;;;;;4996378;28;20668;-75
2022/01/22 03:44:37;;;;;;;7.70;4.20;;;5.60;99.90;;;;;;5013336;28;20311;-79
2022/01/22 03:47:04;;;;;;;5.40;4.37;;;5.80;99.90;;;;;;5048612;28;20192;-75
2022/01/22 03:49:31;;;;;;;9.37;4.20;;;5.60;99.90;;;;;;5024683;28;20178;-76
2022/01/22 03:51:57;;;;;;;5.70;3.87;;;5.70;99.90;;;;;;5041900;28;20186;-78
2022/01/22 03:54:22;;;;;;;6.23;3.97;;;5.80;99.90;;;;;;5030311;28;20185;-76
2022/01/22 03:56:49;;;;;;;6.20;3.90;;;5.80;99.90;;;;;;5012269;28;20201;-76
2022/01/22 03:59:15;;;;;;;7.23;4.57;;;5.90;99.90;;;;;;5013442;28;20696;-79
2022/01/22 04:04:18;;;;;;;6.30;4.27;;;5.70;99.90;;;;;;5032791;28;20188;-77
2022/01/22 04:09:27;;;;;;;6.23;3.87;;;5.70;99.90;;;;;;5048992;28;20181;-78
2022/01/22 04:11:55;;;;;;;6.90;4.43;;;5.60;99.90;;;;;;5048820;28;20193;-76
2022/01/22 04:14:26;;;;;;;5.80;4.10;;;5.40;99.90;;;;;;5050513;28;20169;-77
2022/01/22 04:17:21;;;;;;;4.87;4.03;;;5.50;99.90;;;;;;5017220;28;20236;-79
2022/01/22 04:25:12;;;;;;;5.87;4.33;;;5.60;99.90;;;;;;5032921;28;20265;-77
2022/01/22 04:27:37;;;;;;;5.70;3.83;;;5.70;99.90;;;;;;5048685;28;20204;-76
2022/01/22 04:30:04;;;;;;;6.43;3.93;;;5.70;99.90;;;;;;5016037;28;20200;-77
2022/01/22 04:32:31;;;;;;;7.00;4.03;;;5.50;99.90;;;;;;5030428;28;20185;-79
2022/01/22 04:34:58;;;;;;;7.53;4.23;;;5.50;99.90;;;;;;5061796;28;20196;-79
2022/01/22 04:37:24;;;;;;;7.93;4.60;;;5.40;99.90;;;;;;5070820;28;20211;-78
2022/01/22 04:39:51;;;;;;;9.27;4.33;;;5.60;99.90;;;;;;5038695;28;20204;-76
2022/01/22 04:42:18;;;;;;;6.87;4.73;;;5.50;99.90;;;;;;5056486;28;20208;-78
2022/01/22 04:44:58;;;;;;;6.63;4.30;;;5.60;99.90;;;;;;5072706;28;20247;-77
2022/01/22 04:55:43;;;;;;;8.00;3.90;;;5.50;99.90;;;;;;5073414;28;20623;-77
2022/01/22 04:58:09;;;;;;;9.50;4.07;;;5.40;99.90;;;;;;5065110;28;20208;-76
2022/01/22 05:00:38;;;;;;;7.17;4.10;;;5.60;99.90;;;;;;5051868;28;20314;-77
2022/01/22 05:03:04;;;;;;;8.67;3.77;;;5.50;99.90;;;;;;5018548;28;20258;-76
2022/01/22 05:05:31;;;;;;;6.73;3.97;;;5.70;99.90;;;;;;5019087;28;20708;-78
2022/01/22 05:07:57;;;;;;;5.27;3.70;;;5.80;99.90;;;;;;5051699;28;20208;-77
2022/01/22 05:10:23;;;;;;;7.60;4.30;;;5.60;99.90;;;;;;5053125;28;20161;-77
2022/01/22 05:12:49;;;;;;;7.73;4.13;;;5.60;99.90;;;;;;5035042;28;20201;-76
2022/01/22 05:15:17;;;;;;;6.20;4.17;;;5.90;99.90;;;;;;5018377;28;20228;-76
2022/01/22 05:17:44;;;;;;;7.07;4.07;;;5.90;99.90;;;;;;5051538;28;20173;-77
2022/01/22 05:20:26;;;;;;;6.87;4.10;;;5.80;99.90;;;;;;5035881;28;20208;-77
2022/01/22 05:25:26;;;;;;;7.17;4.17;;;5.70;99.90;;;;;;5051639;28;20248;-76
2022/01/22 05:38:22;;;;;;;7.00;4.87;;;6.10;99.90;;;;;;5032937;28;20166;-78
2022/01/22 05:40:49;;;;;;;7.33;4.17;;;6.00;99.90;;;;;;5014835;28;20176;-79
2022/01/22 05:43:15;;;;;;;5.93;4.23;;;5.80;99.90;;;;;;5031218;28;20213;-75
2022/01/22 05:45:41;;;;;;;5.67;4.10;;;5.80;99.90;;;;;;5030140;28;20288;-77
2022/01/22 05:48:07;;;;;;;8.13;4.73;;;5.80;99.90;;;;;;5031445;28;20267;-79
2022/01/22 05:50:45;;;;;;;10.47;4.80;;;5.90;99.90;;;;;;5032434;28;20632;-77
2022/01/22 05:53:30;;;;;;;5.57;4.10;;;5.90;99.90;;;;;;5014665;28;20184;-75
2022/01/22 06:01:07;;;;;;;5.87;4.37;;;6.00;99.90;;;;;;5032204;28;20177;-79
2022/01/22 06:03:33;;;;;;;9.37;4.53;;;5.90;99.90;;;;;;5048101;28;20301;-78
2022/01/22 06:06:00;;;;;;;8.20;4.27;;;5.90;99.90;;;;;;5050707;28;20262;-76
2022/01/22 06:08:30;;;;;;;8.07;4.40;;;6.10;99.90;;;;;;5034248;28;20176;-76
2022/01/22 06:11:00;;;;;;;9.30;4.47;;;5.90;99.90;;;;;;5034558;28;20179;-76
2022/01/22 06:13:43;;;;;;;6.60;4.70;;;5.80;99.90;;;;;;5040785;28;20194;-78
2022/01/22 06:16:10;;;;;;;5.63;3.83;;;5.80;99.90;;;;;;5031347;28;20197;-78
2022/01/22 06:18:35;;;;;;;10.53;5.10;;;5.70;99.90;;;;;;5030251;28;20174;-76
2022/01/22 06:21:02;;;;;;;5.87;4.33;;;5.70;99.90;;;;;;5030483;28;20186;-79
2022/01/22 06:23:27;;;;;;;6.20;4.60;;;5.60;99.90;;;;;;5032531;28;20709;-79
2022/01/22 06:25:53;;;;;;;7.90;3.93;;;5.90;99.90;;;;;;5035937;28;20176;-78
2022/01/22 06:28:19;;;;;;;7.83;4.00;;;5.90;99.90;;;;;;5033668;28;20173;-78
2022/01/22 06:30:46;;;;;;;9.20;4.50;;;5.90;99.90;;;;;;5032965;28;20185;-80
2022/01/22 06:33:12;;;;;;;5.97;4.43;;;5.90;99.90;;;;;;5023110;28;20184;-76
2022/01/22 06:35:37;;;;;;;5.53;4.27;;;6.00;99.90;;;;;;5048312;28;20188;-77
2022/01/22 06:38:06;;;;;;;5.50;3.90;;;6.10;99.90;;;;;;5035254;28;20177;-76
2022/01/22 06:42:57;;;;;;;4.97;3.00;;;6.00;99.90;;;;;;5036150;28;20207;-77
2022/01/22 06:45:23;;;;;;;6.87;4.13;;;5.90;99.90;;;;;;5022256;28;20269;-78
2022/01/22 06:47:49;;;;;;;6.27;4.50;;;6.10;99.90;;;;;;5026143;28;20181;-75
2022/01/22 06:50:14;;;;;;;6.57;3.70;;;6.10;99.90;;;;;;5040168;28;20240;-76
2022/01/22 06:52:41;;;;;;;7.00;4.10;;;6.00;99.90;;;;;;5039844;28;20201;-76
2022/01/22 06:55:07;;;;;;;9.60;4.50;;;6.10;99.90;;;;;;5038877;28;20186;-78
2022/01/22 06:57:33;;;;;;;6.63;3.87;;;6.10;99.90;;;;;;5008186;28;20197;-79
2022/01/22 06:59:59;;;;;;;7.70;4.13;;;6.10;99.90;;;;;;5037322;28;20188;-79
2022/01/22 07:02:25;;;;;;;5.87;3.97;;;6.10;99.90;;;;;;5028951;28;20527;-78
2022/01/22 07:04:51;;;;;;;7.17;4.23;;;6.00;99.90;;;;;;5049451;28;20174;-77
2022/01/22 07:07:16;;;;;;;6.93;3.83;;;6.00;99.90;;;;;;5031965;28;20181;-81
2022/01/22 07:09:42;;;;;;;8.37;4.37;;;5.70;99.90;;;;;;5025790;28;20181;-76
2022/01/22 07:12:09;;;;;;;9.13;4.63;;;5.90;99.90;;;;;;5024738;28;20679;-80
2022/01/22 07:14:34;;;;;;;8.33;4.40;;;6.00;99.90;;;;;;5029148;28;20182;-77
2022/01/22 07:17:00;;;;;;;8.93;4.63;;;6.00;99.90;;;;;;4999040;28;20186;-76
2022/01/22 07:19:26;;;;;;;5.87;3.40;;;5.90;99.90;;;;;;5039786;28;20513;-76
2022/01/22 07:22:04;;;;;;;5.23;3.50;;;5.80;99.90;;;;;;5006726;28;20687;-76
2022/01/22 07:24:37;;;;;;;8.10;4.10;;;5.90;99.90;;;;;;5005660;28;20185;-80
2022/01/22 07:27:05;;;;;;;6.43;4.50;;;5.70;99.90;;;;;;5034376;28;20319;-80
2022/01/22 07:29:30;;;;;;;6.83;4.03;;;5.80;99.90;;;;;;5035607;28;20178;-77
2022/01/22 07:32:02;;;;;;;6.80;4.33;;;5.80;99.90;;;;;;5041478;28;20170;-80
2022/01/22 07:34:28;;;;;;;7.00;4.33;;;5.80;99.90;;;;;;5029063;28;20649;-80
2022/01/22 07:36:54;;;;;;;7.80;3.97;;;5.90;99.90;;;;;;5014760;28;20187;-78
2022/01/22 07:39:20;;;;;;;8.30;4.87;;;6.00;99.90;;;;;;5042098;28;20585;-77
2022/01/22 07:41:46;;;;;;;6.53;4.17;;;5.80;99.90;;;;;;5011990;28;20186;-76
2022/01/22 07:44:12;;;;;;;5.53;4.23;;;6.00;99.90;;;;;;5028899;28;20192;-76
2022/01/22 07:46:38;;;;;;;6.77;5.10;;;6.00;99.90;;;;;;4996152;28;20194;-78
2022/01/22 07:49:05;;;;;;;6.97;4.60;;;6.00;99.90;;;;;;4997767;28;20189;-75
2022/01/22 07:51:31;;;;;;;6.63;4.90;;;6.10;99.90;;;;;;5019078;28;20524;-82
2022/01/22 07:53:58;;;;;;;6.90;4.50;;;6.00;99.90;;;;;;5033168;28;20190;-82
2022/01/22 07:56:25;;;;;;;8.30;5.60;;;6.00;99.90;;;;;;5039850;28;20469;-82
2022/01/22 07:58:51;;;;;;;6.80;4.23;;;5.90;99.90;;;;;;5012074;28;20448;-78
2022/01/22 08:01:17;;;;;;;6.97;4.37;;;5.90;99.90;;;;;;5042397;28;20181;-76
2022/01/22 08:03:43;;;;;;;8.13;4.47;;;5.90;99.90;;;;;;5004436;28;20205;-80
2022/01/22 08:06:09;;;;;;;8.73;4.50;;;6.10;99.90;;;;;;5037610;28;20312;-80
2022/01/22 08:08:36;;;;;;;8.27;4.50;;;6.10;99.90;;;;;;5035239;28;20185;-76
2022/01/22 08:11:01;;;;;;;6.80;4.07;;;6.10;99.90;;;;;;5041423;28;20542;-80
2022/01/22 08:13:29;;;;;;;8.10;3.90;;;6.00;99.90;;;;;;4990289;28;20185;-79
2022/01/22 08:15:56;;;;;;;6.37;4.27;;;5.80;99.90;;;;;;5046201;28;20197;-75
2022/01/22 08:18:22;;;;;;;6.40;4.37;;;5.90;99.90;;;;;;5037423;28;20185;-75
2022/01/22 08:20:48;;;;;;;6.87;4.10;;;6.00;99.90;;;;;;5033728;28;20209;-77
2022/01/22 08:23:13;;;;;;;25.10;12.50;;;5.90;99.90;;;;;;5041921;28;20699;-78
2022/01/22 08:25:43;;;;;;;12.17;6.33;;;5.90;99.90;;;;;;5025634;28;20182;-79
2022/01/22 08:30:55;;;;;;;6.83;4.10;;;6.00;99.90;;;;;;5033280;28;20178;-80
2022/01/22 08:36:14;;;;;;;9.50;4.80;;;5.80;99.90;;;;;;5054668;28;20538;-75
2022/01/22 08:38:40;;;;;;;7.30;4.80;;;5.80;99.90;;;;;;5039018;28;20184;-76
2022/01/22 08:41:05;;;;;;;9.33;5.57;;;5.80;99.90;;;;;;5055120;28;20214;-75
2022/01/22 08:43:31;;;;;;;7.30;5.10;;;5.80;99.90;;;;;;5038234;28;20197;-76
2022/01/22 08:45:57;;;;;;;9.27;5.37;;;5.80;99.90;;;;;;5057729;28;20281;-77
2022/01/22 08:48:23;;;;;;;8.10;5.03;;;5.90;99.90;;;;;;5031985;28;20188;-81
2022/01/22 08:50:49;;;;;;;7.73;4.80;;;6.00;99.90;;;;;;5017545;28;20249;-78
2022/01/22 08:53:15;;;;;;;7.07;4.87;;;5.90;99.90;;;;;;5031877;28;20182;-78
2022/01/22 08:55:42;;;;;;;6.83;4.80;;;5.70;99.90;;;;;;5018852;28;20188;-75
2022/01/22 08:58:08;;;;;;;8.97;5.50;;;5.60;99.90;;;;;;5035778;28;20255;-79
2022/01/22 09:00:34;;;;;;;11.83;5.23;;;5.80;99.90;;;;;;5036246;28;20573;-76
2022/01/22 09:03:00;;;;;;;13.57;7.30;;;5.80;99.90;;;;;;5022298;28;20202;-75
2022/01/22 09:05:34;;;;;;;8.27;5.60;;;5.90;99.90;;;;;;4999487;28;20182;-80
2022/01/22 09:08:01;;;;;;;7.00;4.80;;;6.10;99.90;;;;;;5000858;28;20570;-75
2022/01/22 09:10:27;;;;;;;8.70;5.23;;;6.00;99.90;;;;;;5033376;28;20170;-80
2022/01/22 09:12:52;;;;;;;8.97;5.33;;;6.10;99.90;;;;;;5032084;28;20195;-79
2022/01/22 09:15:18;;;;;;;8.97;5.27;;;6.20;99.90;;;;;;5031538;28;20276;-80
2022/01/22 09:17:47;;;;;;;7.00;4.73;;;6.00;99.90;;;;;;5031986;28;20182;-80
2022/01/22 09:20:30;;;;;;;11.77;4.93;;;6.10;99.90;;;;;;4998716;28;20178;-76
2022/01/22 09:22:55;;;;;;;8.00;5.40;;;6.00;99.90;;;;;;5033203;28;20863;-80
2022/01/22 09:25:21;;;;;;;11.77;5.80;;;6.00;99.90;;;;;;4998449;28;20178;-76
2022/01/22 09:27:47;;;;;;;11.23;5.23;;;6.00;99.90;;;;;;4998970;28;20210;-77
2022/01/22 09:30:13;;;;;;;8.33;5.63;;;6.10;99.90;;;;;;5032300;28;20174;-79
2022/01/22 09:32:39;;;;;;;7.93;5.50;;;6.20;99.90;;;;;;4999482;28;20181;-80
2022/01/22 09:35:05;;;;;;;9.45;6.72;;;6.20;99.90;;;;;;5032857;28;20768;-78
2022/01/22 09:37:31;;;;;;;9.53;5.30;;;6.20;99.90;;;;;;5014649;28;20706;-74
2022/01/22 09:39:57;;;;;;;10.90;5.73;;;6.20;99.90;;;;;;5037751;28;20428;-78
2022/01/22 09:42:23;;;;;;;15.63;9.20;;;6.20;99.90;;;;;;5030523;28;20202;-77
2022/01/22 09:44:49;;;;;;;13.67;6.67;;;6.20;99.90;;;;;;5016132;28;20220;-80
2022/01/22 09:47:20;;;;;;;8.50;4.90;;;6.10;99.90;;;;;;5052768;28;20212;-74
2022/01/22 09:49:46;;;;;;;7.27;5.07;;;6.10;99.90;;;;;;5051056;28;20170;-75
2022/01/22 09:52:12;;;;;;;7.83;4.73;;;6.20;99.90;;;;;;5050773;28;20173;-75
2022/01/22 09:54:38;;;;;;;10.03;5.40;;;6.30;99.90;;;;;;5034608;28;20185;-76
2022/01/22 09:57:05;;;;;;;6.10;4.97;;;6.20;99.90;;;;;;5052332;28;20202;-81
2022/01/22 09:59:32;;;;;;;6.60;4.87;;;6.20;99.90;;;;;;5034537;28;20676;-75
2022/01/22 10:02:16;;;;;;;9.23;5.53;;;6.10;99.90;;;;;;5051211;28;20189;-79
2022/01/22 10:04:48;;;;;;;10.47;5.37;;;6.30;99.90;;;;;;5018448;28;20231;-80
2022/01/22 10:07:22;;;;;;;11.90;5.10;;;6.30;99.90;;;;;;5052656;28;20177;-74
2022/01/22 10:10:06;;;;;;;7.60;4.97;;;6.20;99.90;;;;;;5053652;28;20649;-80
2022/01/22 10:12:44;;;;;;;8.07;4.83;;;6.30;99.90;;;;;;5052726;28;20184;-81
2022/01/22 10:15:16;;;;;;;12.13;5.90;;;6.30;99.90;;;;;;5050780;28;20196;-75
2022/01/22 10:17:42;;;;;;;8.07;4.77;;;6.30;99.90;;;;;;5050719;28;20632;-83
2022/01/22 10:20:24;;;;;;;10.63;5.43;;;6.50;99.90;;;;;;5034729;28;20265;-81
2022/01/22 10:23:00;;;;;;;10.43;5.13;;;6.50;99.90;;;;;;5050407;28;20291;-80
2022/01/22 10:25:31;;;;;;;7.70;4.77;;;6.50;99.90;;;;;;5018081;28;20273;-77
2022/01/22 10:27:58;;;;;;;7.47;4.60;;;6.50;99.90;;;;;;5035291;28;20165;-79
2022/01/22 10:30:34;;;;;;;8.83;4.40;;;6.30;99.90;;;;;;5040338;28;20619;-75
2022/01/22 10:33:17;;;;;;;7.07;4.70;;;6.50;99.90;;;;;;5018266;28;20197;-75
2022/01/22 10:35:43;;;;;;;6.73;4.23;;;6.60;99.90;;;;;;5058216;28;20195;-78
2022/01/22 10:38:10;;;;;;;6.63;4.70;;;6.70;99.90;;;;;;5054538;28;20197;-79
2022/01/22 10:40:42;;;;;;;7.80;4.57;;;6.60;99.90;;;;;;5071548;28;20176;-79
2022/01/22 10:43:21;;;;;;;7.23;3.80;;;6.60;99.90;;;;;;5029364;28;20290;-76
2022/01/22 10:46:33;;;;;;;5.00;3.70;;;6.50;99.90;;;;;;5046333;28;20192;-79
2022/01/22 10:49:04;;;;;;;6.77;4.20;;;6.50;99.90;;;;;;5047858;28;20201;-80
2022/01/22 10:51:31;;;;;;;6.57;4.03;;;6.50;99.90;;;;;;5049435;28;20173;-79
2022/01/22 10:54:03;;;;;;;6.57;3.57;;;6.60;99.90;;;;;;5032870;28;20181;-79
2022/01/22 10:56:32;;;;;;;8.50;4.17;;;6.70;99.90;;;;;;5052415;28;20181;-79
2022/01/22 10:59:07;;;;;;;5.50;3.40;;;6.60;99.90;;;;;;5049944;28;20196;-74
2022/01/22 11:01:51;;;;;;;5.97;3.83;;;6.70;99.90;;;;;;5033179;28;20188;-78
2022/01/22 11:04:22;;;;;;;6.23;3.63;;;6.60;99.90;;;;;;5049511;28;20204;-82
2022/01/22 11:06:56;;;;;;;5.07;3.57;;;6.70;99.90;;;;;;5049863;28;20181;-74
2022/01/22 11:09:24;;;;;;;4.47;3.73;;;6.50;99.90;;;;;;5049670;28;20180;-76
2022/01/22 11:11:51;;;;;;;5.50;3.90;;;6.50;99.90;;;;;;5032797;28;20276;-74
2022/01/22 11:14:18;;;;;;;6.17;4.27;;;6.50;99.90;;;;;;5051850;28;20196;-78
2022/01/22 11:16:46;;;;;;;4.53;3.47;;;6.60;99.90;;;;;;5033214;28;20671;-75
2022/01/22 11:19:16;;;;;;;4.33;3.77;;;6.70;99.90;;;;;;5033221;28;20543;-77
2022/01/22 11:21:49;;;;;;;5.27;3.30;;;6.80;99.90;;;;;;5048824;28;20591;-74
2022/01/22 11:24:19;;;;;;;4.53;3.70;;;6.70;99.90;;;;;;5049025;28;20204;-76
2022/01/22 11:26:53;;;;;;;5.00;4.00;;;6.80;99.90;;;;;;5038857;28;20247;-76
2022/01/22 11:29:23;;;;;;;6.70;3.47;;;6.90;99.90;;;;;;5048736;28;20192;-75
2022/01/22 11:31:50;;;;;;;5.10;3.53;;;6.90;99.90;;;;;;5002750;28;20182;-74
2022/01/22 11:34:19;;;;;;;11.47;6.13;;;6.80;99.90;;;;;;5029015;28;20178;-74
2022/01/22 11:37:12;;;;;;;7.80;4.63;;;6.80;99.90;;;;;;5012636;28;20188;-76
2022/01/22 11:39:38;;;;;;;7.07;3.90;;;6.60;99.90;;;;;;5029437;28;20169;-75
2022/01/22 11:42:04;;;;;;;8.77;4.27;;;6.60;99.90;;;;;;5030158;28;20185;-76
2022/01/22 11:44:35;;;;;;;7.00;4.13;;;6.80;99.90;;;;;;4997819;28;20664;-76
2022/01/22 11:47:33;;;;;;;5.90;4.23;;;6.80;99.90;;;;;;5033227;28;20551;-77
2022/01/22 11:50:11;;;;;;;5.57;3.67;;;6.90;99.90;;;;;;5033137;28;20601;-75
2022/01/22 11:52:39;;;;;;;6.27;4.10;;;7.00;99.90;;;;;;5032351;28;20185;-76
2022/01/22 11:55:14;;;;;;;7.87;4.10;;;7.00;99.90;;;;;;5032599;28;20182;-74
2022/01/22 11:57:44;;;;;;;7.83;4.13;;;7.00;99.90;;;;;;5035498;28;20211;-76
2022/01/22 12:00:31;;;;;;;4.93;3.50;;;6.90;99.90;;;;;;5036224;28;20318;-75
2022/01/22 12:03:12;;;;;;;6.20;3.87;;;7.00;99.90;;;;;;5028705;28;20802;-75
2022/01/22 12:05:53;;;;;;;7.40;3.63;;;7.00;99.90;;;;;;5054075;28;20244;-74
2022/01/22 12:08:19;;;;;;;5.13;4.10;;;7.00;99.90;;;;;;5051512;28;20404;-78
2022/01/22 12:14:27;;;;;;;4.20;3.50;;;6.90;99.90;;;;;;5053593;28;20170;-78
2022/01/22 12:16:44;;;;;;;6.00;3.10;;;6.90;99.90;;;;;;5055907;28;20240;-80
2022/01/22 12:19:46;;;;;;;3.97;2.90;;;7.20;99.90;;;;;;5036428;28;20235;-78
2022/01/22 12:22:34;;;;;;;5.57;2.90;;;7.20;99.90;;;;;;5022439;28;20268;-80
2022/01/22 12:25:23;;;;;;;4.83;3.30;;;7.20;99.90;;;;;;5039167;28;20181;-80
2022/01/22 12:27:51;;;;;;;6.00;2.90;;;7.20;99.90;;;;;;5040056;28;20174;-76
2022/01/22 12:30:31;;;;;;;4.70;2.90;;;7.30;99.90;;;;;;5043915;28;20257;-77
2022/01/22 12:32:59;;;;;;;5.03;3.20;;;7.40;99.90;;;;;;5035640;28;20653;-79
2022/01/22 12:35:56;;;;;;;4.90;2.53;;;7.20;99.90;;;;;;5047174;28;20188;-75
2022/01/22 12:38:38;;;;;;;2.57;2.37;;;7.30;99.90;;;;;;5018500;28;20185;-78
2022/01/22 12:41:26;;;;;;;4.63;2.67;;;7.20;99.90;;;;;;5043667;28;20746;-79
2022/01/22 12:44:12;;;;;;;4.70;2.67;;;7.40;99.90;;;;;;5001069;28;20334;-77
2022/01/22 12:46:39;;;;;;;5.90;3.50;;;7.30;99.90;;;;;;5031909;28;20178;-76
2022/01/22 12:49:07;;;;;;;5.77;2.93;;;7.30;99.90;;;;;;5014735;28;20181;-75
2022/01/22 12:51:34;;;;;;;4.67;3.13;;;7.30;99.90;;;;;;5033916;28;20190;-78
2022/01/22 12:54:00;;;;;;;3.87;2.77;;;7.30;99.90;;;;;;5038960;28;20186;-78
2022/01/22 12:59:02;;;;;;;4.43;3.20;;;7.30;99.90;;;;;;5034218;28;20198;-76
2022/01/22 13:01:31;;;;;;;4.33;2.93;;;7.30;99.90;;;;;;5031759;28;20196;-76
2022/01/22 13:03:58;;;;;;;4.63;2.90;;;7.10;99.90;;;;;;5013554;28;20618;-74
2022/01/22 13:06:26;;;;;;;4.73;3.00;;;7.20;99.90;;;;;;5032389;28;20178;-77
2022/01/22 13:08:57;;;;;;;4.00;2.70;;;7.20;99.90;;;;;;5031358;28;20633;-73
2022/01/22 13:11:28;;;;;;;7.40;3.20;;;7.20;99.90;;;;;;5031107;28;20194;-76
2022/01/22 13:13:54;;;;;;;6.40;3.73;;;7.00;99.90;;;;;;5034362;28;20665;-76
2022/01/22 13:16:21;;;;;;;7.97;4.15;;;6.80;99.90;;;;;;5040467;28;20415;-75
2022/01/22 13:18:51;;;;;;;5.33;3.30;;;7.00;99.90;;;;;;5030437;28;20186;-75
2022/01/22 13:21:20;;;;;;;5.50;3.40;;;7.10;99.90;;;;;;5032592;28;20179;-75
2022/01/22 13:24:24;;;;;;;5.37;2.80;;;7.20;99.90;;;;;;5032527;28;20247;-73
2022/01/22 13:27:03;;;;;;;6.97;3.70;;;7.20;99.90;;;;;;5038318;28;20191;-78
2022/01/22 13:29:30;;;;;;;5.40;3.30;;;7.20;99.90;;;;;;5032343;28;20182;-77
2022/01/22 13:32:00;;;;;;;4.50;4.10;;;7.20;99.90;;;;;;5029087;28;20195;-75
2022/01/22 13:34:39;;;;;;;6.23;4.77;;;7.30;99.90;;;;;;5032342;28;20249;-74
2022/01/22 13:37:53;;;;;;;5.90;3.87;;;7.20;99.90;;;;;;5016005;28;20185;-74
2022/01/22 13:40:27;;;;;;;7.72;5.32;;;7.10;99.90;;;;;;5030358;28;20522;-76
2022/01/22 13:48:33;;;;;;;5.30;3.53;;;7.00;99.90;;;;;;5051671;28;20169;-76
2022/01/22 13:51:00;;;;;;;7.63;3.93;;;7.10;99.90;;;;;;5051471;28;20212;-74
2022/01/22 13:53:27;;;;;;;4.63;3.63;;;7.10;99.90;;;;;;5050096;28;20169;-73
2022/01/22 13:56:12;;;;;;;4.77;3.50;;;7.10;99.90;;;;;;5027941;28;20490;-74
2022/01/22 13:58:39;;;;;;;6.97;3.93;;;7.10;99.90;;;;;;5045262;28;20213;-74
2022/01/22 14:01:39;;;;;;;5.33;4.10;;;7.10;99.90;;;;;;5062619;28;20181;-75
2022/01/22 14:04:09;;;;;;;6.13;3.97;;;7.20;99.90;;;;;;5028628;28;20201;-73
2022/01/22 14:06:36;;;;;;;7.97;4.00;;;7.10;99.90;;;;;;5027722;28;20170;-76
2022/01/22 14:09:20;;;;;;;6.87;5.00;;;7.10;99.90;;;;;;5028726;28;20165;-73
2022/01/22 14:12:12;;;;;;;8.47;4.87;;;7.10;99.90;;;;;;5012206;28;20251;-75
2022/01/22 14:15:01;;;;;;;5.00;3.83;;;7.00;99.90;;;;;;5028260;28;20588;-75
2022/01/22 14:17:36;;;;;;;5.93;3.70;;;6.90;99.90;;;;;;5030793;28;20170;-73
2022/01/22 14:20:11;;;;;;;6.43;4.17;;;7.00;99.90;;;;;;5031509;28;20174;-76
2022/01/22 14:23:15;;;;;;;6.30;4.47;;;7.10;99.90;;;;;;5031254;28;20243;-76
2022/01/22 14:26:04;;;;;;;5.83;4.40;;;7.20;99.90;;;;;;5034022;28;20169;-76
2022/01/22 14:28:52;;;;;;;8.70;4.40;;;7.00;99.90;;;;;;5033212;28;20173;-76
2022/01/22 14:31:33;;;;;;;5.83;4.37;;;7.10;99.90;;;;;;5049431;28;20702;-75
2022/01/22 14:34:08;;;;;;;6.10;3.97;;;7.10;99.90;;;;;;5049586;28;20200;-74
2022/01/22 14:36:45;;;;;;;5.57;3.80;;;7.10;99.90;;;;;;5033973;28;20177;-73
2022/01/22 14:44:37;;;;;;;6.17;4.10;;;6.90;99.90;;;;;;5050388;28;20169;-76
2022/01/22 14:47:17;;;;;;;6.80;4.10;;;6.80;99.90;;;;;;5033182;28;20287;-76
2022/01/22 14:49:50;;;;;;;5.87;4.40;;;6.90;99.90;;;;;;5032974;28;20208;-77
2022/01/22 14:52:22;;;;;;;9.10;4.53;;;7.00;99.90;;;;;;5049390;28;20648;-73
2022/01/22 14:54:50;;;;;;;6.43;4.53;;;7.10;99.90;;;;;;5049482;28;20260;-78
2022/01/22 14:57:21;;;;;;;9.57;4.43;;;7.10;99.90;;;;;;5050863;28;20595;-75
2022/01/22 14:59:48;;;;;;;7.90;4.73;;;7.00;99.90;;;;;;5030823;28;20660;-75